Portada
METAR-TAF:

METAR-TAF

Aeroports :

Oral, Kazakhstan

latitud: 51-15N, longitud: 051-17E, altitud: 36 m

Observació

L'informe es va fer fa 21 minuts, a les 00:30 UTC
Vent 6 kt del Oest
Temperatura -5°C
Humitat 68%
Pressió 1012 hPa
Visibilitat 10 km o més
sense núvols per sota de 1500 mi sense presència de cumulonimbus.

METAR: UARR 020030Z 27003MPS CAVOK M05/M10 Q1012 R22/CLRD70 NOSIG RMK QFE756/1008

Hora: 05:51 (00:51 UTC)

Pronòstic

L'informe es va fer fa 1 hora i 50 minuts, a les 23:01 UTC
Pronòstic vàlid del 02 a les 00 UTC al 02 a les 09 UTC
Vent 14 kt del Oest amb ràfegues de 23 kt
Visibilitat 10 km o més
Núvols disperses a una alçada de 3300 ft
Temporalment
l' 02 a les 00 UTC al 02 a les 04 UTC
Vent 10 kt del Oest

TAF: UARR 012301Z 0200/0209 27007G12MPS 9999 SCT033 TEMPO 0200/0204 28005MPS

Observacions i pronòstics meteorològics de més de 4000 aeroports (METAR i TAF).

Les estacions disponibles són els punts grocs i vermells al mapa.

Posi el ratolí al punt desitjat per veure el nom de l'estació.

Feu clic per veure les observacions i els pronòstics meteorològics.

Per canviar el mapa: feu clic els botons verds amb una creu de color negre per apropar; al botó verd amb un guió per allunyar la imatge; o en les fletxes verdes per a mapes adjacents.


METAR-TAF: